Scroll down
FLIGHT INFORMATION
Air New Zealand

ANZ9000

At Arrival Gate

LIRF
 OMDB
DATE: 2020-06-03
GATE:  -
GATE DEPARTURE: 07:06
TAKEOFF: 07:19
DATE: 2020-06-03
GATE:  -
LANDING: 12:22
GATE ARRIVAL: 12:27
FLIGHT DATA
Crew: 
Speed: 
964 kph
Altitude: 
43,030 ft
Stage Length: 
4,343.7 km
Block Time: 
5.3 hrs
Flight Time: 
5.1 hrs
Fuel Used: 
43,980 kg
Cleared Route: LIRF RF601 RF603 SOSAK TORLI KONUT PEPIX UNIXO CRN ADREN TOMGI RUTOM LASKO KFN TRL EKTOS ALANI MIL NETIS PEXAN MADEX UVRIT ASTIS ADESO GILOS ETERU VANES RDS LAKAD EXELA EVENO BALMA CAK LATEB LOTAX BASEM ABBAS SULAF TAN MODIK RAPLU PUSTO SILBO LOVEK KODAV ILMAP SIDAD DESLU NANPI ALNIN IMDAT DURSI PEGET EGMIT LEVNA ORSAR GIBIB EMOTA TATLA VUTEB OMDB
TRACK DATA
50,000 ft 1,000 kts
AIRCRAFT INFO AND CUMULATIVE STATS
Aircraft Type: 
B744
Registration: 
SELCAL: 
JQEL
MSN/LN: 
24386 / 756
Operator: 
Total Flights: 
7
Total Block Time: 
61.9 hrs
Total Flight Time: 
60.2 hrs
Total Fuel Time: 
606,833 kg
DATALINK LOG | Newest first | Current as of: 2021-06-24 08:40:42
LABEL SEQUENCE CONTENT Dn/Up
QD272312:27 46.2▼ Dn
QC212012:22▼ Dn
2U4115OMDB 040900Z 28012KT 250V310 CAVOK 38/25 Q1001 NOSIG▲ Up
2S3838OMDB▼ Dn
2U1450OMDB 040200Z 19005KT CAVOK 31/18 Q1000 NOSIG▲ Up
2S4232OMDB▼ Dn
GA4230ADVANCED GATE ASSIGNMENTS NOT YET AVAILABLE AT THIS AIRPORT▲ Up
GR4230OMDB 12:10 HI-VAL NO DIPL/VIP NO▼ Dn
2U0150OMDB 040100Z 21006KT CAVOK 31/18 Q1000 NOSIG▲ Up
2S2922OMDB▼ Dn
5R1405CAK 09:44z FL390 LATEB 09:48z LOTAX M0.85 40.3 -22 223/81 RW12R 12:24z▼ Dn
GA0053ADVANCED GATE ASSIGNMENTS NOT YET AVAILABLE AT THIS AIRPORT▲ Up
GR0053OMDB 12:27 HI-VAL NO DIPL/VIP NO▼ Dn
5Z00522 JUN 20 09:31:36z / FLT DECK GOOD / ACF POS GOOD / GRND SERVICES GOOD / MAINT GOOD▼ Dn
QB474407:19▼ Dn
QA343207:06 143.2▼ Dn
A32624NO MATCHING FLIGHT DATA AVAILABLE FROM ANSP▲ Up
B32624LIRF OMDB ANZ9000 ZKNBS C ▼ Dn
Q02119[LINK ACK]▲ Up
Q02119[LINK TEST]▼ Dn


AIRCRAFT HISTORY
FLIGHT DATE FLIGHT NO. ORIGIN DESTINATION CLEARED ROUTE BLOCK TIME FLIGHT TIME FUEL USED PILOT
2020-11-22ANZ25LSZH KSFO LSZH ZH580 ZH577 BREGO ZH554 ZH558 VEBIT DANZE LASUN LUMEL KUBOM TORPA REKLA RLP ROTSI KOTUN PODUK DIDOR NURMO DIPER VESAN RATUK SOVAT SANDY BIG GOXUL LINDY NORRY CPT KENET UGNUS LANON BADSI ABLIN IRKUM LIPGO SLG PIKIL 5720N 5830N 5840N 5750N HOIST YKL GL YAT YPL YWG WG MOT CONUK TWF FMG TROSE MOD LEEFF GROAN CEDES ARCHI MEHTA CEPIN RW28R12.3 hrs12 hrs283,325 lbMark Adeane
2020-11-17ANZ23KSFO LSZH KSFO ORRCA BETBE ZORUN GALLI BIL MOT YWG YRL DUSMA MCKEE AVUTI 5850N 5840N 5730N 5620N RESNO NETKI SLANY STU NUMPO OKESI HOFIK BEDEK NIGIT VAPID MID BOGNA BENBO HAWKE XAMAB VEULE INPAX RESMI TEPRI POGZI FUZKA WERZU GELTA MELKO MANAG PILON TIRSO PEVIT BLM LSZH10.8 hrs10.6 hrs237,331 lbMark Adeane
2020-11-17ANZ22NZCH KSFO NZCH CH OKTOM OLBAD NOKAK BOMTI VEMET PABGO ISPAK RG LOTRA BIBUP MEVEP NIKES TEDAG AGPOM UPNAR 08N40 18N35 27N30 MANEY MAFIC CINNY HUNTS PASIF PIRAT BRINY KSFO12.6 hrs12.3 hrs290,962 lbMark Adeane
2020-06-07ANZ9001OMDB NZCH OMDB DB570 DB586 DB587 DB588 DB589 DB571 DB572 ULADO RAPMO LOPUV ANVIX PEDUL KIPOK TARDI NOSMI BOTAM ELIVA MUSUK IVAKU GEPOT GIDAN TOLDA EMURU GOLBA GADMA LOTAV KADOL LEMAX MESAN NITIX OSIRI VASTU AKLON CIA GUTEG BIKOK CM KAT CL HAMBA HE EGODU EKASU BASEV ELATI MUTMI TATOD MALBI TANEM DECEM TIMET PD KADUN NONAX WENER PUGUT VIRUV CARTS LEC SAPED NEWMO PKS KADOM TESAT CAWLY PLUGA BOKED SULON VANDA BELEE AVOCA BISUP CH426 CHARR IDUBU RW0215.6 hrs15.3 hrs321,615 lbMark Adeane
2020-06-03ANZ9000LIRF OMDB LIRF RF601 RF603 SOSAK TORLI KONUT PEPIX UNIXO CRN ADREN TOMGI RUTOM LASKO KFN TRL EKTOS ALANI MIL NETIS PEXAN MADEX UVRIT ASTIS ADESO GILOS ETERU VANES RDS LAKAD EXELA EVENO BALMA CAK LATEB LOTAX BASEM ABBAS SULAF TAN MODIK RAPLU PUSTO SILBO LOVEK KODAV ILMAP SIDAD DESLU NANPI ALNIN IMDAT DURSI PEGET EGMIT LEVNA ORSAR GIBIB EMOTA TATLA VUTEB OMDB5.3 hrs5.1 hrs96,959 lbMark Adeane
2018-08-30ANZ1ESSA LIRF 3.2 hrs2.9 hrs64,967 lbMatthew Gales
2018-08-29ANZ66EGLL ESSA 2.1 hrs1.9 hrs42,678 lbMatthew Gales